sensor_id;sensor_type;location;lat;lon;timestamp;temperature;humidity
546;DHT22;259;53.304;9.816;2023-08-01T00:00:50;18.50;97.70
546;DHT22;259;53.304;9.816;2023-08-01T00:03:15;18.50;97.80
546;DHT22;259;53.304;9.816;2023-08-01T00:05:41;18.60;98.10
546;DHT22;259;53.304;9.816;2023-08-01T00:08:11;18.60;97.90
546;DHT22;259;53.304;9.816;2023-08-01T00:10:38;18.50;97.90
546;DHT22;259;53.304;9.816;2023-08-01T00:13:04;18.50;97.80
546;DHT22;259;53.304;9.816;2023-08-01T00:15:30;18.60;97.90
546;DHT22;259;53.304;9.816;2023-08-01T00:17:55;18.60;97.80
546;DHT22;259;53.304;9.816;2023-08-01T00:20:21;18.60;97.80
546;DHT22;259;53.304;9.816;2023-08-01T00:22:47;18.50;97.70
546;DHT22;259;53.304;9.816;2023-08-01T00:25:13;18.50;97.70
546;DHT22;259;53.304;9.816;2023-08-01T00:27:39;18.50;97.70
546;DHT22;259;53.304;9.816;2023-08-01T00:30:05;18.50;97.70
546;DHT22;259;53.304;9.816;2023-08-01T00:32:31;18.50;97.60
546;DHT22;259;53.304;9.816;2023-08-01T00:34:57;18.50;97.70
546;DHT22;259;53.304;9.816;2023-08-01T00:37:23;18.50;97.70
546;DHT22;259;53.304;9.816;2023-08-01T00:39:48;18.50;97.70
546;DHT22;259;53.304;9.816;2023-08-01T00:42:15;18.50;97.60
546;DHT22;259;53.304;9.816;2023-08-01T00:44:41;18.50;97.70
546;DHT22;259;53.304;9.816;2023-08-01T00:47:06;18.50;97.70
546;DHT22;259;53.304;9.816;2023-08-01T00:49:32;18.50;97.70
546;DHT22;259;53.304;9.816;2023-08-01T00:51:58;18.50;97.70
546;DHT22;259;53.304;9.816;2023-08-01T00:54:25;18.50;97.70
546;DHT22;259;53.304;9.816;2023-08-01T00:56:51;18.50;97.60
546;DHT22;259;53.304;9.816;2023-08-01T00:59:16;18.50;97.70
546;DHT22;259;53.304;9.816;2023-08-01T01:01:42;18.50;97.70
546;DHT22;259;53.304;9.816;2023-08-01T01:04:08;18.50;97.70
546;DHT22;259;53.304;9.816;2023-08-01T01:06:48;18.50;97.70
546;DHT22;259;53.304;9.816;2023-08-01T01:09:17;18.50;97.70
546;DHT22;259;53.304;9.816;2023-08-01T01:11:44;18.50;97.70
546;DHT22;259;53.304;9.816;2023-08-01T01:14:11;18.50;97.70
546;DHT22;259;53.304;9.816;2023-08-01T01:16:36;18.50;97.70
546;DHT22;259;53.304;9.816;2023-08-01T01:19:07;18.50;97.70
546;DHT22;259;53.304;9.816;2023-08-01T01:21:35;18.50;97.70
546;DHT22;259;53.304;9.816;2023-08-01T01:24:04;18.50;97.70
546;DHT22;259;53.304;9.816;2023-08-01T01:26:35;18.50;97.70
546;DHT22;259;53.304;9.816;2023-08-01T01:29:03;18.40;97.70
546;DHT22;259;53.304;9.816;2023-08-01T01:31:30;18.40;97.60
546;DHT22;259;53.304;9.816;2023-08-01T01:33:58;18.40;97.70
546;DHT22;259;53.304;9.816;2023-08-01T01:36:24;18.40;97.70
546;DHT22;259;53.304;9.816;2023-08-01T01:38:50;18.40;97.70
546;DHT22;259;53.304;9.816;2023-08-01T01:41:15;18.40;97.70
546;DHT22;259;53.304;9.816;2023-08-01T01:43:41;18.40;97.70
546;DHT22;259;53.304;9.816;2023-08-01T01:46:07;18.40;97.70
546;DHT22;259;53.304;9.816;2023-08-01T01:48:32;18.40;97.70
546;DHT22;259;53.304;9.816;2023-08-01T01:50:58;18.40;97.70
546;DHT22;259;53.304;9.816;2023-08-01T01:53:24;18.50;97.80
546;DHT22;259;53.304;9.816;2023-08-01T01:55:50;18.40;97.70
546;DHT22;259;53.304;9.816;2023-08-01T01:58:15;18.40;97.70
546;DHT22;259;53.304;9.816;2023-08-01T02:00:41;18.50;97.70
546;DHT22;259;53.304;9.816;2023-08-01T02:03:07;18.40;97.70
546;DHT22;259;53.304;9.816;2023-08-01T02:05:36;18.40;97.70
546;DHT22;259;53.304;9.816;2023-08-01T02:08:02;18.40;97.70
546;DHT22;259;53.304;9.816;2023-08-01T02:10:30;18.40;97.70
546;DHT22;259;53.304;9.816;2023-08-01T02:12:55;18.40;97.70
546;DHT22;259;53.304;9.816;2023-08-01T02:15:21;18.40;97.70
546;DHT22;259;53.304;9.816;2023-08-01T02:17:47;18.40;97.70
546;DHT22;259;53.304;9.816;2023-08-01T02:20:12;18.40;97.70
546;DHT22;259;53.304;9.816;2023-08-01T02:22:38;18.40;97.70
546;DHT22;259;53.304;9.816;2023-08-01T02:25:04;18.40;97.70
546;DHT22;259;53.304;9.816;2023-08-01T02:27:30;18.40;97.70
546;DHT22;259;53.304;9.816;2023-08-01T02:29:56;18.40;97.70
546;DHT22;259;53.304;9.816;2023-08-01T02:32:21;18.40;97.70
546;DHT22;259;53.304;9.816;2023-08-01T02:34:47;18.40;97.70
546;DHT22;259;53.304;9.816;2023-08-01T02:37:13;18.40;97.70
546;DHT22;259;53.304;9.816;2023-08-01T02:39:38;18.40;97.70
546;DHT22;259;53.304;9.816;2023-08-01T02:42:04;18.40;97.70
546;DHT22;259;53.304;9.816;2023-08-01T02:44:30;18.40;97.70
546;DHT22;259;53.304;9.816;2023-08-01T02:46:55;18.40;98.00
546;DHT22;259;53.304;9.816;2023-08-01T02:49:21;18.40;97.70
546;DHT22;259;53.304;9.816;2023-08-01T02:51:47;18.40;97.70
546;DHT22;259;53.304;9.816;2023-08-01T02:54:13;18.40;97.70
546;DHT22;259;53.304;9.816;2023-08-01T02:56:38;18.40;97.70
546;DHT22;259;53.304;9.816;2023-08-01T02:59:07;18.40;97.70
546;DHT22;259;53.304;9.816;2023-08-01T03:01:36;18.30;97.70
546;DHT22;259;53.304;9.816;2023-08-01T03:04:03;18.40;97.70
546;DHT22;259;53.304;9.816;2023-08-01T03:06:30;18.40;97.70
546;DHT22;259;53.304;9.816;2023-08-01T03:08:56;18.40;97.70
546;DHT22;259;53.304;9.816;2023-08-01T03:11:22;18.40;97.70
546;DHT22;259;53.304;9.816;2023-08-01T03:13:47;18.40;97.70
546;DHT22;259;53.304;9.816;2023-08-01T03:16:13;18.30;97.70
546;DHT22;259;53.304;9.816;2023-08-01T03:18:39;18.30;97.80
546;DHT22;259;53.304;9.816;2023-08-01T03:21:04;18.30;97.70
546;DHT22;259;53.304;9.816;2023-08-01T03:23:30;18.40;97.80
546;DHT22;259;53.304;9.816;2023-08-01T03:25:56;18.40;97.80
546;DHT22;259;53.304;9.816;2023-08-01T03:28:22;18.30;97.80
546;DHT22;259;53.304;9.816;2023-08-01T03:30:47;18.30;97.80
546;DHT22;259;53.304;9.816;2023-08-01T03:33:16;18.40;97.80
546;DHT22;259;53.304;9.816;2023-08-01T03:35:42;18.40;97.80
546;DHT22;259;53.304;9.816;2023-08-01T03:38:07;18.40;97.80
546;DHT22;259;53.304;9.816;2023-08-01T03:40:33;18.40;97.80
546;DHT22;259;53.304;9.816;2023-08-01T03:42:59;18.40;97.80
546;DHT22;259;53.304;9.816;2023-08-01T03:45:24;18.40;97.70
546;DHT22;259;53.304;9.816;2023-08-01T03:47:50;18.30;97.70
546;DHT22;259;53.304;9.816;2023-08-01T03:50:16;18.30;97.70
546;DHT22;259;53.304;9.816;2023-08-01T03:52:42;18.30;97.70
546;DHT22;259;53.304;9.816;2023-08-01T03:55:08;18.30;97.70
546;DHT22;259;53.304;9.816;2023-08-01T03:57:33;18.30;97.70
546;DHT22;259;53.304;9.816;2023-08-01T04:00:00;18.30;97.70
546;DHT22;259;53.304;9.816;2023-08-01T04:02:25;18.30;97.70
546;DHT22;259;53.304;9.816;2023-08-01T04:04:51;18.30;97.70
546;DHT22;259;53.304;9.816;2023-08-01T04:07:18;18.30;97.70
546;DHT22;259;53.304;9.816;2023-08-01T04:09:44;18.30;97.70
546;DHT22;259;53.304;9.816;2023-08-01T04:12:09;18.30;97.70
546;DHT22;259;53.304;9.816;2023-08-01T04:14:35;18.30;97.70
546;DHT22;259;53.304;9.816;2023-08-01T04:17:01;18.30;97.70
546;DHT22;259;53.304;9.816;2023-08-01T04:19:26;18.30;97.70
546;DHT22;259;53.304;9.816;2023-08-01T04:21:52;18.30;97.70
546;DHT22;259;53.304;9.816;2023-08-01T04:24:18;18.30;97.70
546;DHT22;259;53.304;9.816;2023-08-01T04:26:43;18.30;97.70
546;DHT22;259;53.304;9.816;2023-08-01T04:29:09;18.30;97.70
546;DHT22;259;53.304;9.816;2023-08-01T04:31:35;18.30;97.70
546;DHT22;259;53.304;9.816;2023-08-01T04:34:00;18.30;97.70
546;DHT22;259;53.304;9.816;2023-08-01T04:36:26;18.30;97.70
546;DHT22;259;53.304;9.816;2023-08-01T04:38:52;18.30;97.70
546;DHT22;259;53.304;9.816;2023-08-01T04:41:17;18.30;97.70
546;DHT22;259;53.304;9.816;2023-08-01T04:43:43;18.30;97.70
546;DHT22;259;53.304;9.816;2023-08-01T04:46:09;18.30;97.70
546;DHT22;259;53.304;9.816;2023-08-01T04:48:34;18.30;97.80
546;DHT22;259;53.304;9.816;2023-08-01T04:51:00;18.30;97.70
546;DHT22;259;53.304;9.816;2023-08-01T04:53:26;18.30;97.70
546;DHT22;259;53.304;9.816;2023-08-01T04:55:51;18.20;97.70
546;DHT22;259;53.304;9.816;2023-08-01T04:58:17;18.30;97.80
546;DHT22;259;53.304;9.816;2023-08-01T05:00:43;18.30;97.80
546;DHT22;259;53.304;9.816;2023-08-01T05:03:09;18.30;97.80
546;DHT22;259;53.304;9.816;2023-08-01T05:05:34;18.30;97.70
546;DHT22;259;53.304;9.816;2023-08-01T05:08:00;18.30;97.80
546;DHT22;259;53.304;9.816;2023-08-01T05:10:26;18.30;97.80
546;DHT22;259;53.304;9.816;2023-08-01T05:12:51;18.30;97.80
546;DHT22;259;53.304;9.816;2023-08-01T05:15:17;18.30;97.80
546;DHT22;259;53.304;9.816;2023-08-01T05:17:43;18.30;97.80
546;DHT22;259;53.304;9.816;2023-08-01T05:20:09;18.30;97.80
546;DHT22;259;53.304;9.816;2023-08-01T05:22:35;18.30;97.80
546;DHT22;259;53.304;9.816;2023-08-01T05:25:01;18.30;97.70
546;DHT22;259;53.304;9.816;2023-08-01T05:27:27;18.20;97.70
546;DHT22;259;53.304;9.816;2023-08-01T05:29:52;18.30;97.80
546;DHT22;259;53.304;9.816;2023-08-01T05:32:18;18.20;97.70
546;DHT22;259;53.304;9.816;2023-08-01T05:34:44;18.20;97.70
546;DHT22;259;53.304;9.816;2023-08-01T05:37:10;18.20;97.70
546;DHT22;259;53.304;9.816;2023-08-01T05:39:35;18.20;97.70
546;DHT22;259;53.304;9.816;2023-08-01T05:42:01;18.20;97.70
546;DHT22;259;53.304;9.816;2023-08-01T05:44:27;18.20;97.70
546;DHT22;259;53.304;9.816;2023-08-01T05:46:52;18.20;98.10
546;DHT22;259;53.304;9.816;2023-08-01T05:49:18;18.20;97.70
546;DHT22;259;53.304;9.816;2023-08-01T05:51:44;18.20;97.80
546;DHT22;259;53.304;9.816;2023-08-01T05:54:09;18.20;97.70
546;DHT22;259;53.304;9.816;2023-08-01T05:56:35;18.20;97.70
546;DHT22;259;53.304;9.816;2023-08-01T05:59:01;18.20;97.80
546;DHT22;259;53.304;9.816;2023-08-01T06:01:26;18.20;97.80
546;DHT22;259;53.304;9.816;2023-08-01T06:03:52;18.20;97.70
546;DHT22;259;53.304;9.816;2023-08-01T06:06:18;18.20;97.80
546;DHT22;259;53.304;9.816;2023-08-01T06:08:43;18.20;97.70
546;DHT22;259;53.304;9.816;2023-08-01T06:11:09;18.20;97.80
546;DHT22;259;53.304;9.816;2023-08-01T06:13:35;18.20;97.80
546;DHT22;259;53.304;9.816;2023-08-01T06:16:01;18.20;97.80
546;DHT22;259;53.304;9.816;2023-08-01T06:18:26;18.20;97.80
546;DHT22;259;53.304;9.816;2023-08-01T06:20:52;18.20;97.80
546;DHT22;259;53.304;9.816;2023-08-01T06:23:18;18.20;97.70
546;DHT22;259;53.304;9.816;2023-08-01T06:25:44;18.20;97.80
546;DHT22;259;53.304;9.816;2023-08-01T06:28:09;18.20;97.80
546;DHT22;259;53.304;9.816;2023-08-01T06:30:35;18.20;97.80
546;DHT22;259;53.304;9.816;2023-08-01T06:33:01;18.20;97.80
546;DHT22;259;53.304;9.816;2023-08-01T06:35:26;18.20;97.80
546;DHT22;259;53.304;9.816;2023-08-01T06:37:52;18.20;97.80
546;DHT22;259;53.304;9.816;2023-08-01T06:40:17;18.20;97.90
546;DHT22;259;53.304;9.816;2023-08-01T06:42:43;18.20;97.90
546;DHT22;259;53.304;9.816;2023-08-01T06:45:09;18.20;97.90
546;DHT22;259;53.304;9.816;2023-08-01T06:47:35;18.20;97.90
546;DHT22;259;53.304;9.816;2023-08-01T06:50:00;18.20;97.90
546;DHT22;259;53.304;9.816;2023-08-01T06:52:26;18.20;97.90
546;DHT22;259;53.304;9.816;2023-08-01T06:54:52;18.20;98.10
546;DHT22;259;53.304;9.816;2023-08-01T06:57:17;18.20;97.80
546;DHT22;259;53.304;9.816;2023-08-01T06:59:43;18.20;97.80
546;DHT22;259;53.304;9.816;2023-08-01T07:02:09;18.20;97.80
546;DHT22;259;53.304;9.816;2023-08-01T07:04:34;18.20;97.90
546;DHT22;259;53.304;9.816;2023-08-01T07:07:00;18.20;97.90
546;DHT22;259;53.304;9.816;2023-08-01T07:09:26;18.20;97.90
546;DHT22;259;53.304;9.816;2023-08-01T07:11:51;18.20;97.90
546;DHT22;259;53.304;9.816;2023-08-01T07:14:17;18.20;97.90
546;DHT22;259;53.304;9.816;2023-08-01T07:16:43;18.20;97.90
546;DHT22;259;53.304;9.816;2023-08-01T07:19:08;18.20;97.90
546;DHT22;259;53.304;9.816;2023-08-01T07:21:34;18.20;97.90
546;DHT22;259;53.304;9.816;2023-08-01T07:23:59;18.20;97.90
546;DHT22;259;53.304;9.816;2023-08-01T07:26:25;18.20;97.90
546;DHT22;259;53.304;9.816;2023-08-01T07:28:51;18.20;97.90
546;DHT22;259;53.304;9.816;2023-08-01T07:31:17;18.20;97.90
546;DHT22;259;53.304;9.816;2023-08-01T07:33:42;18.20;97.90
546;DHT22;259;53.304;9.816;2023-08-01T07:36:08;18.20;97.90
546;DHT22;259;53.304;9.816;2023-08-01T07:38:34;18.20;97.90
546;DHT22;259;53.304;9.816;2023-08-01T07:41:03;18.20;97.90
546;DHT22;259;53.304;9.816;2023-08-01T07:43:29;18.20;97.90
546;DHT22;259;53.304;9.816;2023-08-01T07:45:59;18.20;97.90
546;DHT22;259;53.304;9.816;2023-08-01T07:48:24;18.20;97.90
546;DHT22;259;53.304;9.816;2023-08-01T07:50:50;18.20;97.90
546;DHT22;259;53.304;9.816;2023-08-01T07:53:16;18.20;97.90
546;DHT22;259;53.304;9.816;2023-08-01T07:55:42;18.30;98.10
546;DHT22;259;53.304;9.816;2023-08-01T07:58:08;18.30;98.00
546;DHT22;259;53.304;9.816;2023-08-01T08:00:36;18.30;98.00
546;DHT22;259;53.304;9.816;2023-08-01T08:03:02;18.30;98.00
546;DHT22;259;53.304;9.816;2023-08-01T08:05:28;18.30;97.90
546;DHT22;259;53.304;9.816;2023-08-01T08:07:53;18.30;97.90
546;DHT22;259;53.304;9.816;2023-08-01T08:10:19;18.30;97.90
546;DHT22;259;53.304;9.816;2023-08-01T08:12:45;18.30;97.90
546;DHT22;259;53.304;9.816;2023-08-01T08:15:11;18.30;97.90
546;DHT22;259;53.304;9.816;2023-08-01T08:17:38;18.30;97.90
546;DHT22;259;53.304;9.816;2023-08-01T08:20:04;18.30;98.00
546;DHT22;259;53.304;9.816;2023-08-01T08:22:31;18.30;98.00
546;DHT22;259;53.304;9.816;2023-08-01T08:24:57;18.30;98.00
546;DHT22;259;53.304;9.816;2023-08-01T08:27:23;18.40;98.10
546;DHT22;259;53.304;9.816;2023-08-01T08:29:49;18.30;98.00
546;DHT22;259;53.304;9.816;2023-08-01T08:32:15;18.40;98.00
546;DHT22;259;53.304;9.816;2023-08-01T08:34:40;18.40;98.00
546;DHT22;259;53.304;9.816;2023-08-01T08:37:06;18.40;98.00
546;DHT22;259;53.304;9.816;2023-08-01T08:39:32;18.40;98.00
546;DHT22;259;53.304;9.816;2023-08-01T08:41:57;18.40;98.10
546;DHT22;259;53.304;9.816;2023-08-01T08:44:24;18.40;98.00
546;DHT22;259;53.304;9.816;2023-08-01T08:46:54;18.40;98.10
546;DHT22;259;53.304;9.816;2023-08-01T08:49:21;18.40;98.10
546;DHT22;259;53.304;9.816;2023-08-01T08:51:48;18.40;98.10
546;DHT22;259;53.304;9.816;2023-08-01T08:54:15;18.40;98.10
546;DHT22;259;53.304;9.816;2023-08-01T08:56:41;18.40;98.10
546;DHT22;259;53.304;9.816;2023-08-01T08:59:08;18.40;98.50
546;DHT22;259;53.304;9.816;2023-08-01T09:01:37;18.40;98.20
546;DHT22;259;53.304;9.816;2023-08-01T09:04:04;18.50;98.20
546;DHT22;259;53.304;9.816;2023-08-01T09:06:32;18.40;98.10
546;DHT22;259;53.304;9.816;2023-08-01T09:09:04;18.50;98.20
546;DHT22;259;53.304;9.816;2023-08-01T09:11:46;18.50;98.30
546;DHT22;259;53.304;9.816;2023-08-01T09:14:13;18.50;98.20
546;DHT22;259;53.304;9.816;2023-08-01T09:16:42;18.50;98.20
546;DHT22;259;53.304;9.816;2023-08-01T09:19:09;18.60;98.10
546;DHT22;259;53.304;9.816;2023-08-01T09:21:36;18.60;98.00
546;DHT22;259;53.304;9.816;2023-08-01T09:24:23;18.60;97.90
546;DHT22;259;53.304;9.816;2023-08-01T09:26:49;18.60;97.90
546;DHT22;259;53.304;9.816;2023-08-01T09:29:19;18.60;97.90
546;DHT22;259;53.304;9.816;2023-08-01T09:31:45;18.60;97.90
546;DHT22;259;53.304;9.816;2023-08-01T09:34:22;18.60;97.80
546;DHT22;259;53.304;9.816;2023-08-01T09:36:50;18.60;97.90
546;DHT22;259;53.304;9.816;2023-08-01T09:39:18;18.60;97.90
546;DHT22;259;53.304;9.816;2023-08-01T09:41:45;18.60;97.90
546;DHT22;259;53.304;9.816;2023-08-01T09:44:15;18.60;98.20
546;DHT22;259;53.304;9.816;2023-08-01T09:46:42;18.60;97.90
546;DHT22;259;53.304;9.816;2023-08-01T09:49:10;18.70;97.90
546;DHT22;259;53.304;9.816;2023-08-01T09:51:47;18.60;97.80
546;DHT22;259;53.304;9.816;2023-08-01T09:54:14;18.60;97.80
546;DHT22;259;53.304;9.816;2023-08-01T09:56:44;18.60;97.70
546;DHT22;259;53.304;9.816;2023-08-01T09:59:13;18.60;97.70
546;DHT22;259;53.304;9.816;2023-08-01T10:01:44;18.70;97.70
546;DHT22;259;53.304;9.816;2023-08-01T10:04:13;18.70;97.70
546;DHT22;259;53.304;9.816;2023-08-01T10:06:42;18.60;97.70
546;DHT22;259;53.304;9.816;2023-08-01T10:09:10;18.70;97.80
546;DHT22;259;53.304;9.816;2023-08-01T10:11:38;18.70;97.80
546;DHT22;259;53.304;9.816;2023-08-01T10:14:04;18.70;97.70
546;DHT22;259;53.304;9.816;2023-08-01T10:16:31;18.70;97.80
546;DHT22;259;53.304;9.816;2023-08-01T10:18:59;18.70;97.80
546;DHT22;259;53.304;9.816;2023-08-01T10:21:25;18.70;97.80
546;DHT22;259;53.304;9.816;2023-08-01T10:23:53;18.70;97.80
546;DHT22;259;53.304;9.816;2023-08-01T10:26:19;18.70;97.80
546;DHT22;259;53.304;9.816;2023-08-01T10:28:52;18.80;97.90
546;DHT22;259;53.304;9.816;2023-08-01T10:31:20;18.80;97.90
546;DHT22;259;53.304;9.816;2023-08-01T10:33:48;18.80;97.90
546;DHT22;259;53.304;9.816;2023-08-01T10:36:23;18.80;97.90
546;DHT22;259;53.304;9.816;2023-08-01T10:38:59;18.80;97.90
546;DHT22;259;53.304;9.816;2023-08-01T10:41:31;18.90;97.90
546;DHT22;259;53.304;9.816;2023-08-01T10:44:12;18.80;97.90
546;DHT22;259;53.304;9.816;2023-08-01T10:49:44;18.90;97.90
546;DHT22;259;53.304;9.816;2023-08-01T10:52:18;18.90;97.90
546;DHT22;259;53.304;9.816;2023-08-01T10:54:47;18.90;98.00
546;DHT22;259;53.304;9.816;2023-08-01T10:57:16;18.90;97.90
546;DHT22;259;53.304;9.816;2023-08-01T10:59:43;18.90;97.90
546;DHT22;259;53.304;9.816;2023-08-01T11:02:09;19.00;97.90
546;DHT22;259;53.304;9.816;2023-08-01T11:04:35;19.00;98.00
546;DHT22;259;53.304;9.816;2023-08-01T11:07:01;19.00;98.00
546;DHT22;259;53.304;9.816;2023-08-01T11:09:29;19.00;98.00
546;DHT22;259;53.304;9.816;2023-08-01T11:11:57;19.00;98.10
546;DHT22;259;53.304;9.816;2023-08-01T11:14:25;18.90;98.10
546;DHT22;259;53.304;9.816;2023-08-01T11:16:54;18.90;98.10
546;DHT22;259;53.304;9.816;2023-08-01T11:19:25;18.90;98.20
546;DHT22;259;53.304;9.816;2023-08-01T11:21:53;18.90;98.20
546;DHT22;259;53.304;9.816;2023-08-01T11:24:21;18.90;98.20
546;DHT22;259;53.304;9.816;2023-08-01T11:26:48;18.90;98.30
546;DHT22;259;53.304;9.816;2023-08-01T11:29:16;18.90;98.30
546;DHT22;259;53.304;9.816;2023-08-01T11:31:59;18.90;98.30
546;DHT22;259;53.304;9.816;2023-08-01T11:34:25;18.90;98.20
546;DHT22;259;53.304;9.816;2023-08-01T11:36:51;18.90;98.10
546;DHT22;259;53.304;9.816;2023-08-01T11:39:18;18.90;98.10
546;DHT22;259;53.304;9.816;2023-08-01T11:41:44;18.90;98.10
546;DHT22;259;53.304;9.816;2023-08-01T11:44:10;19.00;98.10
546;DHT22;259;53.304;9.816;2023-08-01T11:46:37;19.00;98.10
546;DHT22;259;53.304;9.816;2023-08-01T11:49:06;18.90;98.00
546;DHT22;259;53.304;9.816;2023-08-01T11:51:39;19.00;98.10
546;DHT22;259;53.304;9.816;2023-08-01T11:54:06;19.00;98.00
546;DHT22;259;53.304;9.816;2023-08-01T11:56:33;19.00;98.10
546;DHT22;259;53.304;9.816;2023-08-01T11:58:58;19.00;98.10
546;DHT22;259;53.304;9.816;2023-08-01T12:01:25;19.00;98.10
546;DHT22;259;53.304;9.816;2023-08-01T12:03:51;19.00;98.10
546;DHT22;259;53.304;9.816;2023-08-01T12:06:22;19.00;98.10
546;DHT22;259;53.304;9.816;2023-08-01T12:08:51;19.00;98.10
546;DHT22;259;53.304;9.816;2023-08-01T12:11:25;19.00;98.10
546;DHT22;259;53.304;9.816;2023-08-01T12:14:22;19.00;98.10
546;DHT22;259;53.304;9.816;2023-08-01T12:16:48;19.00;98.40
546;DHT22;259;53.304;9.816;2023-08-01T12:19:18;19.00;98.20
546;DHT22;259;53.304;9.816;2023-08-01T12:21:45;19.00;98.20
546;DHT22;259;53.304;9.816;2023-08-01T12:24:11;19.00;98.20
546;DHT22;259;53.304;9.816;2023-08-01T12:26:36;19.00;98.20
546;DHT22;259;53.304;9.816;2023-08-01T12:29:02;19.00;98.10
546;DHT22;259;53.304;9.816;2023-08-01T12:31:28;19.00;98.10
546;DHT22;259;53.304;9.816;2023-08-01T12:33:54;19.10;98.10
546;DHT22;259;53.304;9.816;2023-08-01T12:36:20;19.10;98.10
546;DHT22;259;53.304;9.816;2023-08-01T12:38:46;19.10;98.10
546;DHT22;259;53.304;9.816;2023-08-01T12:41:11;19.10;98.10
546;DHT22;259;53.304;9.816;2023-08-01T12:43:37;19.10;98.10
546;DHT22;259;53.304;9.816;2023-08-01T12:46:03;19.10;98.20
546;DHT22;259;53.304;9.816;2023-08-01T12:48:29;19.10;98.10
546;DHT22;259;53.304;9.816;2023-08-01T12:50:55;19.10;98.20
546;DHT22;259;53.304;9.816;2023-08-01T12:53:21;19.10;98.20
546;DHT22;259;53.304;9.816;2023-08-01T12:55:49;19.20;98.30
546;DHT22;259;53.304;9.816;2023-08-01T12:58:16;19.20;98.30
546;DHT22;259;53.304;9.816;2023-08-01T13:00:43;19.20;98.30
546;DHT22;259;53.304;9.816;2023-08-01T13:03:10;19.20;98.30
546;DHT22;259;53.304;9.816;2023-08-01T13:05:38;19.20;98.30
546;DHT22;259;53.304;9.816;2023-08-01T13:08:05;19.20;98.30
546;DHT22;259;53.304;9.816;2023-08-01T13:10:32;19.20;98.30
546;DHT22;259;53.304;9.816;2023-08-01T13:12:59;19.20;98.30
546;DHT22;259;53.304;9.816;2023-08-01T13:15:26;19.20;98.30
546;DHT22;259;53.304;9.816;2023-08-01T13:17:53;19.20;98.30
546;DHT22;259;53.304;9.816;2023-08-01T13:20:19;19.30;98.30
546;DHT22;259;53.304;9.816;2023-08-01T13:22:46;19.30;98.30
546;DHT22;259;53.304;9.816;2023-08-01T13:25:13;19.30;98.30
546;DHT22;259;53.304;9.816;2023-08-01T13:27:40;19.30;98.30
546;DHT22;259;53.304;9.816;2023-08-01T13:30:06;19.30;98.30
546;DHT22;259;53.304;9.816;2023-08-01T13:32:32;19.30;98.30
546;DHT22;259;53.304;9.816;2023-08-01T13:34:58;19.30;98.30
546;DHT22;259;53.304;9.816;2023-08-01T13:37:23;19.30;98.30
546;DHT22;259;53.304;9.816;2023-08-01T13:39:49;19.30;98.30
546;DHT22;259;53.304;9.816;2023-08-01T13:42:15;19.30;98.30
546;DHT22;259;53.304;9.816;2023-08-01T13:44:41;19.30;98.30
546;DHT22;259;53.304;9.816;2023-08-01T13:47:07;19.40;98.40
546;DHT22;259;53.304;9.816;2023-08-01T13:49:32;19.40;98.40
546;DHT22;259;53.304;9.816;2023-08-01T13:51:59;19.40;98.30
546;DHT22;259;53.304;9.816;2023-08-01T13:54:25;19.40;98.30
546;DHT22;259;53.304;9.816;2023-08-01T13:56:51;19.40;98.20
546;DHT22;259;53.304;9.816;2023-08-01T13:59:18;19.40;98.30
546;DHT22;259;53.304;9.816;2023-08-01T14:01:45;19.40;98.30
546;DHT22;259;53.304;9.816;2023-08-01T14:04:11;19.40;98.30
546;DHT22;259;53.304;9.816;2023-08-01T14:06:40;19.30;98.20
546;DHT22;259;53.304;9.816;2023-08-01T14:09:07;19.30;98.20
546;DHT22;259;53.304;9.816;2023-08-01T14:11:34;19.30;98.20
546;DHT22;259;53.304;9.816;2023-08-01T14:14:00;19.30;98.20
546;DHT22;259;53.304;9.816;2023-08-01T14:16:26;19.30;98.20
546;DHT22;259;53.304;9.816;2023-08-01T14:18:53;19.30;98.20
546;DHT22;259;53.304;9.816;2023-08-01T14:21:19;19.30;98.20
546;DHT22;259;53.304;9.816;2023-08-01T14:23:44;19.30;98.30
546;DHT22;259;53.304;9.816;2023-08-01T14:26:10;19.30;98.30
546;DHT22;259;53.304;9.816;2023-08-01T14:28:36;19.30;98.30
546;DHT22;259;53.304;9.816;2023-08-01T14:31:03;19.30;98.30
546;DHT22;259;53.304;9.816;2023-08-01T14:33:29;19.30;98.60
546;DHT22;259;53.304;9.816;2023-08-01T14:35:55;19.30;98.30
546;DHT22;259;53.304;9.816;2023-08-01T14:38:21;19.30;98.40
546;DHT22;259;53.304;9.816;2023-08-01T14:40:47;19.40;98.70
546;DHT22;259;53.304;9.816;2023-08-01T14:43:13;19.40;98.80
546;DHT22;259;53.304;9.816;2023-08-01T14:45:41;19.40;98.60
546;DHT22;259;53.304;9.816;2023-08-01T14:48:08;19.40;98.50
546;DHT22;259;53.304;9.816;2023-08-01T14:50:34;19.40;98.40
546;DHT22;259;53.304;9.816;2023-08-01T14:53:00;19.50;98.50
546;DHT22;259;53.304;9.816;2023-08-01T14:55:32;19.50;98.50
546;DHT22;259;53.304;9.816;2023-08-01T14:57:58;19.50;98.40
546;DHT22;259;53.304;9.816;2023-08-01T15:00:24;19.60;98.40
546;DHT22;259;53.304;9.816;2023-08-01T15:02:50;19.60;98.40
546;DHT22;259;53.304;9.816;2023-08-01T15:05:16;19.60;98.40
546;DHT22;259;53.304;9.816;2023-08-01T15:07:42;19.60;98.30
546;DHT22;259;53.304;9.816;2023-08-01T15:10:08;19.60;98.30
546;DHT22;259;53.304;9.816;2023-08-01T15:12:34;19.60;98.30
546;DHT22;259;53.304;9.816;2023-08-01T15:15:00;19.60;98.50
546;DHT22;259;53.304;9.816;2023-08-01T15:17:25;19.60;98.30
546;DHT22;259;53.304;9.816;2023-08-01T15:19:52;19.60;98.30
546;DHT22;259;53.304;9.816;2023-08-01T15:22:18;19.60;98.50
546;DHT22;259;53.304;9.816;2023-08-01T15:24:45;19.60;98.50
546;DHT22;259;53.304;9.816;2023-08-01T15:27:12;19.60;98.30
546;DHT22;259;53.304;9.816;2023-08-01T15:29:38;19.60;98.30
546;DHT22;259;53.304;9.816;2023-08-01T15:32:04;19.60;98.30
546;DHT22;259;53.304;9.816;2023-08-01T15:34:30;19.60;98.30
546;DHT22;259;53.304;9.816;2023-08-01T15:36:56;19.60;98.30
546;DHT22;259;53.304;9.816;2023-08-01T15:39:22;19.60;98.30
546;DHT22;259;53.304;9.816;2023-08-01T15:41:48;19.60;98.30
546;DHT22;259;53.304;9.816;2023-08-01T15:44:14;19.60;98.30
546;DHT22;259;53.304;9.816;2023-08-01T15:46:40;19.50;98.20
546;DHT22;259;53.304;9.816;2023-08-01T15:49:06;19.50;98.20
546;DHT22;259;53.304;9.816;2023-08-01T15:51:32;19.50;98.20
546;DHT22;259;53.304;9.816;2023-08-01T15:53:58;19.60;98.30
546;DHT22;259;53.304;9.816;2023-08-01T15:56:24;19.50;98.30
546;DHT22;259;53.304;9.816;2023-08-01T15:58:51;19.50;98.30
546;DHT22;259;53.304;9.816;2023-08-01T16:01:17;19.50;98.20
546;DHT22;259;53.304;9.816;2023-08-01T16:03:43;19.50;98.20
546;DHT22;259;53.304;9.816;2023-08-01T16:06:10;19.50;98.20
546;DHT22;259;53.304;9.816;2023-08-01T16:08:36;19.50;98.20
546;DHT22;259;53.304;9.816;2023-08-01T16:11:02;19.50;98.20
546;DHT22;259;53.304;9.816;2023-08-01T16:13:28;19.50;98.30
546;DHT22;259;53.304;9.816;2023-08-01T16:15:53;19.50;98.30
546;DHT22;259;53.304;9.816;2023-08-01T16:18:19;19.50;98.30
546;DHT22;259;53.304;9.816;2023-08-01T16:20:46;19.50;98.30
546;DHT22;259;53.304;9.816;2023-08-01T16:23:12;19.50;98.30
546;DHT22;259;53.304;9.816;2023-08-01T16:25:38;19.50;98.30
546;DHT22;259;53.304;9.816;2023-08-01T16:28:04;19.50;98.30
546;DHT22;259;53.304;9.816;2023-08-01T16:30:30;19.50;98.30
546;DHT22;259;53.304;9.816;2023-08-01T16:32:56;19.50;98.30